sensor_id;sensor_type;location;lat;lon;timestamp;P1;durP1;ratioP1;P2;durP2;ratioP2
19253;SDS011;9761;50.926;5.330;2022-09-30T00:00:57;16.27;;;14.57;;
19253;SDS011;9761;50.926;5.330;2022-09-30T00:03:27;16.60;;;14.80;;
19253;SDS011;9761;50.926;5.330;2022-09-30T00:05:56;16.70;;;14.10;;
19253;SDS011;9761;50.926;5.330;2022-09-30T00:08:25;17.57;;;14.87;;
19253;SDS011;9761;50.926;5.330;2022-09-30T00:10:59;19.73;;;15.40;;
19253;SDS011;9761;50.926;5.330;2022-09-30T00:13:27;18.70;;;15.90;;
19253;SDS011;9761;50.926;5.330;2022-09-30T00:15:57;16.77;;;14.80;;
19253;SDS011;9761;50.926;5.330;2022-09-30T00:18:29;18.53;;;16.40;;
19253;SDS011;9761;50.926;5.330;2022-09-30T00:20:58;20.30;;;15.77;;
19253;SDS011;9761;50.926;5.330;2022-09-30T00:23:26;18.43;;;14.83;;
19253;SDS011;9761;50.926;5.330;2022-09-30T00:25:56;21.10;;;18.17;;
19253;SDS011;9761;50.926;5.330;2022-09-30T00:28:27;19.53;;;17.50;;
19253;SDS011;9761;50.926;5.330;2022-09-30T00:31:06;19.33;;;16.70;;
19253;SDS011;9761;50.926;5.330;2022-09-30T00:33:38;18.53;;;16.53;;
19253;SDS011;9761;50.926;5.330;2022-09-30T00:36:06;24.67;;;17.33;;
19253;SDS011;9761;50.926;5.330;2022-09-30T00:38:33;21.77;;;16.90;;
19253;SDS011;9761;50.926;5.330;2022-09-30T00:41:00;20.10;;;16.67;;
19253;SDS011;9761;50.926;5.330;2022-09-30T00:43:38;19.53;;;17.57;;
19253;SDS011;9761;50.926;5.330;2022-09-30T00:46:15;21.20;;;18.50;;
19253;SDS011;9761;50.926;5.330;2022-09-30T00:48:48;20.00;;;16.93;;
19253;SDS011;9761;50.926;5.330;2022-09-30T00:51:19;18.93;;;17.03;;
19253;SDS011;9761;50.926;5.330;2022-09-30T00:53:51;20.63;;;16.70;;
19253;SDS011;9761;50.926;5.330;2022-09-30T00:56:22;21.50;;;16.70;;
19253;SDS011;9761;50.926;5.330;2022-09-30T00:58:52;17.80;;;15.53;;
19253;SDS011;9761;50.926;5.330;2022-09-30T01:01:24;17.33;;;15.53;;
19253;SDS011;9761;50.926;5.330;2022-09-30T01:03:52;17.47;;;15.50;;
19253;SDS011;9761;50.926;5.330;2022-09-30T01:06:22;18.37;;;15.83;;
19253;SDS011;9761;50.926;5.330;2022-09-30T01:08:50;17.93;;;16.03;;
19253;SDS011;9761;50.926;5.330;2022-09-30T01:11:19;18.37;;;15.13;;
19253;SDS011;9761;50.926;5.330;2022-09-30T01:13:48;17.13;;;15.23;;
19253;SDS011;9761;50.926;5.330;2022-09-30T01:16:41;18.00;;;14.93;;
19253;SDS011;9761;50.926;5.330;2022-09-30T01:19:29;20.33;;;16.00;;
19253;SDS011;9761;50.926;5.330;2022-09-30T01:22:15;16.50;;;14.80;;
19253;SDS011;9761;50.926;5.330;2022-09-30T01:33:48;18.47;;;16.47;;
19253;SDS011;9761;50.926;5.330;2022-09-30T01:36:27;18.67;;;16.67;;
19253;SDS011;9761;50.926;5.330;2022-09-30T01:39:09;18.97;;;16.93;;
19253;SDS011;9761;50.926;5.330;2022-09-30T01:41:48;19.03;;;17.03;;
19253;SDS011;9761;50.926;5.330;2022-09-30T01:44:20;18.43;;;16.53;;
19253;SDS011;9761;50.926;5.330;2022-09-30T01:46:57;20.57;;;16.43;;
19253;SDS011;9761;50.926;5.330;2022-09-30T01:49:32;18.40;;;16.40;;
19253;SDS011;9761;50.926;5.330;2022-09-30T01:52:06;19.23;;;17.00;;
19253;SDS011;9761;50.926;5.330;2022-09-30T01:54:38;19.10;;;16.87;;
19253;SDS011;9761;50.926;5.330;2022-09-30T01:57:14;20.97;;;18.03;;
19253;SDS011;9761;50.926;5.330;2022-09-30T01:59:49;19.43;;;17.37;;
19253;SDS011;9761;50.926;5.330;2022-09-30T02:02:23;20.37;;;17.60;;
19253;SDS011;9761;50.926;5.330;2022-09-30T02:04:54;20.50;;;18.30;;
19253;SDS011;9761;50.926;5.330;2022-09-30T02:07:27;20.43;;;18.33;;
19253;SDS011;9761;50.926;5.330;2022-09-30T02:09:59;22.77;;;18.50;;
19253;SDS011;9761;50.926;5.330;2022-09-30T02:12:33;21.30;;;19.03;;
19253;SDS011;9761;50.926;5.330;2022-09-30T02:15:05;22.50;;;20.00;;
19253;SDS011;9761;50.926;5.330;2022-09-30T02:17:40;22.07;;;19.73;;
19253;SDS011;9761;50.926;5.330;2022-09-30T02:20:14;22.37;;;20.03;;
19253;SDS011;9761;50.926;5.330;2022-09-30T02:22:47;23.47;;;19.57;;
19253;SDS011;9761;50.926;5.330;2022-09-30T02:25:17;22.67;;;20.23;;
19253;SDS011;9761;50.926;5.330;2022-09-30T02:27:51;22.27;;;19.93;;
19253;SDS011;9761;50.926;5.330;2022-09-30T02:30:23;24.87;;;20.23;;
19253;SDS011;9761;50.926;5.330;2022-09-30T02:32:54;26.43;;;21.27;;
19253;SDS011;9761;50.926;5.330;2022-09-30T02:35:23;25.83;;;22.97;;
19253;SDS011;9761;50.926;5.330;2022-09-30T02:37:56;25.80;;;22.63;;
19253;SDS011;9761;50.926;5.330;2022-09-30T02:40:28;27.17;;;23.40;;
19253;SDS011;9761;50.926;5.330;2022-09-30T02:43:02;39.23;;;29.70;;
19253;SDS011;9761;50.926;5.330;2022-09-30T02:45:33;28.37;;;22.47;;
19253;SDS011;9761;50.926;5.330;2022-09-30T02:48:12;31.83;;;24.70;;
19253;SDS011;9761;50.926;5.330;2022-09-30T02:50:51;26.33;;;23.57;;
19253;SDS011;9761;50.926;5.330;2022-09-30T02:53:26;25.53;;;22.67;;
19253;SDS011;9761;50.926;5.330;2022-09-30T02:56:07;29.00;;;23.07;;
19253;SDS011;9761;50.926;5.330;2022-09-30T02:58:39;28.03;;;24.00;;
19253;SDS011;9761;50.926;5.330;2022-09-30T03:01:08;31.47;;;24.87;;
19253;SDS011;9761;50.926;5.330;2022-09-30T03:03:40;26.27;;;22.27;;
19253;SDS011;9761;50.926;5.330;2022-09-30T03:06:10;26.90;;;23.67;;
19253;SDS011;9761;50.926;5.330;2022-09-30T03:08:39;27.67;;;24.33;;
19253;SDS011;9761;50.926;5.330;2022-09-30T03:11:09;26.90;;;24.07;;
19253;SDS011;9761;50.926;5.330;2022-09-30T03:13:53;26.83;;;23.13;;
19253;SDS011;9761;50.926;5.330;2022-09-30T03:16:39;27.47;;;23.50;;
19253;SDS011;9761;50.926;5.330;2022-09-30T03:19:30;28.27;;;23.37;;
19253;SDS011;9761;50.926;5.330;2022-09-30T03:22:12;26.10;;;23.37;;
19253;SDS011;9761;50.926;5.330;2022-09-30T03:24:57;27.30;;;24.23;;
19253;SDS011;9761;50.926;5.330;2022-09-30T03:27:38;26.27;;;23.47;;
19253;SDS011;9761;50.926;5.330;2022-09-30T03:30:16;26.87;;;23.20;;
19253;SDS011;9761;50.926;5.330;2022-09-30T03:33:00;27.90;;;24.53;;
19253;SDS011;9761;50.926;5.330;2022-09-30T03:35:39;28.13;;;24.33;;
19253;SDS011;9761;50.926;5.330;2022-09-30T03:38:18;28.47;;;24.47;;
19253;SDS011;9761;50.926;5.330;2022-09-30T03:40:55;27.70;;;24.70;;
19253;SDS011;9761;50.926;5.330;2022-09-30T03:43:28;26.97;;;23.73;;
19253;SDS011;9761;50.926;5.330;2022-09-30T03:46:00;28.43;;;24.40;;
19253;SDS011;9761;50.926;5.330;2022-09-30T03:48:34;29.27;;;24.87;;
19253;SDS011;9761;50.926;5.330;2022-09-30T03:51:05;29.93;;;23.53;;
19253;SDS011;9761;50.926;5.330;2022-09-30T03:53:36;27.37;;;24.47;;
19253;SDS011;9761;50.926;5.330;2022-09-30T03:56:03;29.93;;;24.83;;
19253;SDS011;9761;50.926;5.330;2022-09-30T03:58:30;27.33;;;23.63;;
19253;SDS011;9761;50.926;5.330;2022-09-30T04:00:58;28.50;;;23.93;;
19253;SDS011;9761;50.926;5.330;2022-09-30T04:03:27;27.57;;;24.50;;
19253;SDS011;9761;50.926;5.330;2022-09-30T04:05:55;29.00;;;24.47;;
19253;SDS011;9761;50.926;5.330;2022-09-30T04:08:23;31.80;;;25.37;;
19253;SDS011;9761;50.926;5.330;2022-09-30T04:10:54;28.03;;;24.10;;
19253;SDS011;9761;50.926;5.330;2022-09-30T04:13:21;30.70;;;26.07;;
19253;SDS011;9761;50.926;5.330;2022-09-30T04:15:52;29.70;;;24.67;;
19253;SDS011;9761;50.926;5.330;2022-09-30T04:18:19;31.57;;;26.80;;
19253;SDS011;9761;50.926;5.330;2022-09-30T04:20:46;30.27;;;26.40;;
19253;SDS011;9761;50.926;5.330;2022-09-30T04:23:13;29.63;;;24.87;;
19253;SDS011;9761;50.926;5.330;2022-09-30T04:25:42;27.00;;;24.13;;
19253;SDS011;9761;50.926;5.330;2022-09-30T04:28:09;33.33;;;26.00;;
19253;SDS011;9761;50.926;5.330;2022-09-30T04:30:38;31.20;;;24.67;;
19253;SDS011;9761;50.926;5.330;2022-09-30T04:33:05;33.97;;;27.17;;
19253;SDS011;9761;50.926;5.330;2022-09-30T04:35:32;33.23;;;27.50;;
19253;SDS011;9761;50.926;5.330;2022-09-30T04:38:03;29.87;;;26.73;;
19253;SDS011;9761;50.926;5.330;2022-09-30T04:40:34;35.53;;;28.10;;
19253;SDS011;9761;50.926;5.330;2022-09-30T04:43:04;35.13;;;28.10;;
19253;SDS011;9761;50.926;5.330;2022-09-30T04:45:32;38.67;;;28.50;;
19253;SDS011;9761;50.926;5.330;2022-09-30T04:47:59;34.47;;;28.63;;
19253;SDS011;9761;50.926;5.330;2022-09-30T04:50:28;33.37;;;28.27;;
19253;SDS011;9761;50.926;5.330;2022-09-30T04:52:55;34.73;;;29.03;;
19253;SDS011;9761;50.926;5.330;2022-09-30T04:55:22;32.77;;;28.83;;
19253;SDS011;9761;50.926;5.330;2022-09-30T04:57:51;37.50;;;30.97;;
19253;SDS011;9761;50.926;5.330;2022-09-30T05:00:21;37.27;;;30.27;;
19253;SDS011;9761;50.926;5.330;2022-09-30T05:02:49;32.00;;;28.33;;
19253;SDS011;9761;50.926;5.330;2022-09-30T05:05:19;35.27;;;29.00;;
19253;SDS011;9761;50.926;5.330;2022-09-30T05:07:46;37.87;;;29.77;;
19253;SDS011;9761;50.926;5.330;2022-09-30T05:10:13;37.83;;;30.03;;
19253;SDS011;9761;50.926;5.330;2022-09-30T05:12:41;38.63;;;30.23;;
19253;SDS011;9761;50.926;5.330;2022-09-30T05:15:09;41.63;;;29.30;;
19253;SDS011;9761;50.926;5.330;2022-09-30T05:17:37;33.73;;;28.80;;
19253;SDS011;9761;50.926;5.330;2022-09-30T05:20:05;38.47;;;30.07;;
19253;SDS011;9761;50.926;5.330;2022-09-30T05:22:35;36.90;;;30.43;;
19253;SDS011;9761;50.926;5.330;2022-09-30T05:25:02;37.53;;;29.73;;
19253;SDS011;9761;50.926;5.330;2022-09-30T05:27:31;36.73;;;29.73;;
19253;SDS011;9761;50.926;5.330;2022-09-30T05:29:58;37.53;;;30.87;;
19253;SDS011;9761;50.926;5.330;2022-09-30T05:32:26;39.80;;;29.97;;
19253;SDS011;9761;50.926;5.330;2022-09-30T05:34:56;40.63;;;31.53;;
19253;SDS011;9761;50.926;5.330;2022-09-30T05:37:22;44.30;;;32.77;;
19253;SDS011;9761;50.926;5.330;2022-09-30T05:39:49;39.57;;;31.00;;
19253;SDS011;9761;50.926;5.330;2022-09-30T05:42:16;44.60;;;33.10;;
19253;SDS011;9761;50.926;5.330;2022-09-30T05:44:48;40.27;;;32.03;;
19253;SDS011;9761;50.926;5.330;2022-09-30T05:47:15;43.03;;;32.20;;
19253;SDS011;9761;50.926;5.330;2022-09-30T05:49:42;38.17;;;30.73;;
19253;SDS011;9761;50.926;5.330;2022-09-30T05:52:11;39.93;;;31.67;;
19253;SDS011;9761;50.926;5.330;2022-09-30T05:54:42;42.30;;;32.50;;
19253;SDS011;9761;50.926;5.330;2022-09-30T05:57:11;39.37;;;31.53;;
19253;SDS011;9761;50.926;5.330;2022-09-30T05:59:38;49.10;;;32.53;;
19253;SDS011;9761;50.926;5.330;2022-09-30T06:02:08;42.40;;;31.43;;
19253;SDS011;9761;50.926;5.330;2022-09-30T06:04:35;42.83;;;32.40;;
19253;SDS011;9761;50.926;5.330;2022-09-30T06:07:08;44.53;;;33.83;;
19253;SDS011;9761;50.926;5.330;2022-09-30T06:09:37;38.30;;;31.50;;
19253;SDS011;9761;50.926;5.330;2022-09-30T06:12:04;40.20;;;30.70;;
19253;SDS011;9761;50.926;5.330;2022-09-30T06:14:31;42.23;;;32.03;;
19253;SDS011;9761;50.926;5.330;2022-09-30T06:16:58;40.27;;;31.90;;
19253;SDS011;9761;50.926;5.330;2022-09-30T06:19:25;39.97;;;31.70;;
19253;SDS011;9761;50.926;5.330;2022-09-30T06:21:54;41.80;;;31.90;;
19253;SDS011;9761;50.926;5.330;2022-09-30T06:24:21;38.00;;;31.10;;
19253;SDS011;9761;50.926;5.330;2022-09-30T06:26:50;45.93;;;32.33;;
19253;SDS011;9761;50.926;5.330;2022-09-30T06:29:20;43.33;;;33.13;;
19253;SDS011;9761;50.926;5.330;2022-09-30T06:31:49;37.07;;;29.90;;
19253;SDS011;9761;50.926;5.330;2022-09-30T06:34:16;41.07;;;31.50;;
19253;SDS011;9761;50.926;5.330;2022-09-30T06:36:43;45.20;;;31.97;;
19253;SDS011;9761;50.926;5.330;2022-09-30T06:39:16;41.83;;;33.27;;
19253;SDS011;9761;50.926;5.330;2022-09-30T06:41:47;42.53;;;32.37;;
19253;SDS011;9761;50.926;5.330;2022-09-30T06:44:15;41.53;;;33.53;;
19253;SDS011;9761;50.926;5.330;2022-09-30T06:46:43;40.40;;;29.97;;
19253;SDS011;9761;50.926;5.330;2022-09-30T06:49:10;41.80;;;31.87;;
19253;SDS011;9761;50.926;5.330;2022-09-30T06:51:39;38.03;;;31.57;;
19253;SDS011;9761;50.926;5.330;2022-09-30T06:54:07;42.27;;;31.90;;
19253;SDS011;9761;50.926;5.330;2022-09-30T06:56:35;38.37;;;30.50;;
19253;SDS011;9761;50.926;5.330;2022-09-30T06:59:02;41.33;;;30.60;;
19253;SDS011;9761;50.926;5.330;2022-09-30T07:01:30;37.37;;;30.93;;
19253;SDS011;9761;50.926;5.330;2022-09-30T07:03:58;40.63;;;29.63;;
19253;SDS011;9761;50.926;5.330;2022-09-30T07:06:27;40.03;;;30.53;;
19253;SDS011;9761;50.926;5.330;2022-09-30T07:08:56;41.40;;;30.07;;
19253;SDS011;9761;50.926;5.330;2022-09-30T07:11:23;38.57;;;31.70;;
19253;SDS011;9761;50.926;5.330;2022-09-30T07:13:50;38.17;;;31.37;;
19253;SDS011;9761;50.926;5.330;2022-09-30T07:16:18;42.27;;;31.93;;
19253;SDS011;9761;50.926;5.330;2022-09-30T07:18:51;34.23;;;28.60;;
19253;SDS011;9761;50.926;5.330;2022-09-30T07:21:18;35.23;;;29.70;;
19253;SDS011;9761;50.926;5.330;2022-09-30T07:23:46;39.20;;;30.70;;
19253;SDS011;9761;50.926;5.330;2022-09-30T07:26:16;40.93;;;30.80;;
19253;SDS011;9761;50.926;5.330;2022-09-30T07:28:48;36.27;;;29.07;;
19253;SDS011;9761;50.926;5.330;2022-09-30T07:31:18;41.77;;;30.37;;
19253;SDS011;9761;50.926;5.330;2022-09-30T07:33:46;35.73;;;29.70;;
19253;SDS011;9761;50.926;5.330;2022-09-30T07:36:19;38.20;;;29.10;;
19253;SDS011;9761;50.926;5.330;2022-09-30T07:38:51;35.57;;;29.13;;
19253;SDS011;9761;50.926;5.330;2022-09-30T07:41:24;37.00;;;28.97;;
19253;SDS011;9761;50.926;5.330;2022-09-30T07:43:55;36.03;;;29.00;;
19253;SDS011;9761;50.926;5.330;2022-09-30T07:46:24;35.73;;;28.30;;
19253;SDS011;9761;50.926;5.330;2022-09-30T07:48:56;37.53;;;29.87;;
19253;SDS011;9761;50.926;5.330;2022-09-30T07:51:30;36.90;;;29.27;;
19253;SDS011;9761;50.926;5.330;2022-09-30T07:54:02;33.37;;;27.47;;
19253;SDS011;9761;50.926;5.330;2022-09-30T07:56:30;33.60;;;28.97;;
19253;SDS011;9761;50.926;5.330;2022-09-30T07:58:58;35.50;;;28.53;;
19253;SDS011;9761;50.926;5.330;2022-09-30T08:01:27;33.63;;;27.80;;
19253;SDS011;9761;50.926;5.330;2022-09-30T08:03:57;35.47;;;27.47;;
19253;SDS011;9761;50.926;5.330;2022-09-30T08:06:27;32.17;;;27.23;;
19253;SDS011;9761;50.926;5.330;2022-09-30T08:08:57;35.17;;;28.07;;
19253;SDS011;9761;50.926;5.330;2022-09-30T08:11:24;34.60;;;28.00;;
19253;SDS011;9761;50.926;5.330;2022-09-30T08:13:53;33.97;;;26.83;;
19253;SDS011;9761;50.926;5.330;2022-09-30T08:16:22;32.67;;;26.03;;
19253;SDS011;9761;50.926;5.330;2022-09-30T08:18:52;28.67;;;25.60;;
19253;SDS011;9761;50.926;5.330;2022-09-30T08:21:23;29.37;;;25.27;;
19253;SDS011;9761;50.926;5.330;2022-09-30T08:23:53;29.03;;;25.03;;
19253;SDS011;9761;50.926;5.330;2022-09-30T08:26:20;30.97;;;25.17;;
19253;SDS011;9761;50.926;5.330;2022-09-30T08:28:49;31.80;;;24.80;;
19253;SDS011;9761;50.926;5.330;2022-09-30T08:31:17;31.37;;;23.93;;
19253;SDS011;9761;50.926;5.330;2022-09-30T08:33:45;30.53;;;24.93;;
19253;SDS011;9761;50.926;5.330;2022-09-30T08:36:15;28.17;;;23.40;;
19253;SDS011;9761;50.926;5.330;2022-09-30T08:38:47;26.83;;;23.60;;
19253;SDS011;9761;50.926;5.330;2022-09-30T08:41:24;32.97;;;24.87;;
19253;SDS011;9761;50.926;5.330;2022-09-30T08:44:11;34.83;;;25.77;;
19253;SDS011;9761;50.926;5.330;2022-09-30T08:46:50;29.80;;;24.07;;
19253;SDS011;9761;50.926;5.330;2022-09-30T08:49:32;28.23;;;24.30;;
19253;SDS011;9761;50.926;5.330;2022-09-30T08:52:10;26.63;;;23.67;;
19253;SDS011;9761;50.926;5.330;2022-09-30T08:54:46;31.03;;;24.30;;
19253;SDS011;9761;50.926;5.330;2022-09-30T08:57:18;31.63;;;24.83;;
19253;SDS011;9761;50.926;5.330;2022-09-30T08:59:48;29.50;;;23.77;;
19253;SDS011;9761;50.926;5.330;2022-09-30T09:02:20;26.63;;;22.27;;
19253;SDS011;9761;50.926;5.330;2022-09-30T09:04:51;25.33;;;21.53;;
19253;SDS011;9761;50.926;5.330;2022-09-30T09:07:30;26.07;;;21.83;;
19253;SDS011;9761;50.926;5.330;2022-09-30T09:10:09;25.47;;;20.07;;
19253;SDS011;9761;50.926;5.330;2022-09-30T09:12:47;28.27;;;19.90;;
19253;SDS011;9761;50.926;5.330;2022-09-30T09:15:34;28.80;;;20.37;;
19253;SDS011;9761;50.926;5.330;2022-09-30T09:21:16;35.97;;;22.43;;
19253;SDS011;9761;50.926;5.330;2022-09-30T09:23:49;32.87;;;21.03;;
19253;SDS011;9761;50.926;5.330;2022-09-30T09:26:20;36.23;;;21.60;;
19253;SDS011;9761;50.926;5.330;2022-09-30T09:28:58;38.57;;;22.20;;
19253;SDS011;9761;50.926;5.330;2022-09-30T09:31:36;33.13;;;21.30;;
19253;SDS011;9761;50.926;5.330;2022-09-30T09:34:06;31.07;;;19.53;;
19253;SDS011;9761;50.926;5.330;2022-09-30T09:36:43;36.60;;;20.43;;
19253;SDS011;9761;50.926;5.330;2022-09-30T09:39:31;33.40;;;20.10;;
19253;SDS011;9761;50.926;5.330;2022-09-30T09:42:25;27.97;;;19.33;;
19253;SDS011;9761;50.926;5.330;2022-09-30T09:45:09;29.87;;;19.07;;
19253;SDS011;9761;50.926;5.330;2022-09-30T09:47:49;26.47;;;15.23;;
19253;SDS011;9761;50.926;5.330;2022-09-30T09:50:18;25.47;;;15.57;;
19253;SDS011;9761;50.926;5.330;2022-09-30T09:53:01;26.07;;;15.33;;
19253;SDS011;9761;50.926;5.330;2022-09-30T09:55:40;23.13;;;14.37;;
19253;SDS011;9761;50.926;5.330;2022-09-30T09:58:08;24.83;;;13.53;;
19253;SDS011;9761;50.926;5.330;2022-09-30T10:00:41;18.43;;;12.77;;
19253;SDS011;9761;50.926;5.330;2022-09-30T10:03:25;18.73;;;12.30;;
19253;SDS011;9761;50.926;5.330;2022-09-30T10:06:00;17.33;;;10.90;;
19253;SDS011;9761;50.926;5.330;2022-09-30T10:08:30;19.20;;;11.33;;
19253;SDS011;9761;50.926;5.330;2022-09-30T10:11:00;15.20;;;8.90;;
19253;SDS011;9761;50.926;5.330;2022-09-30T10:13:31;16.83;;;8.10;;
19253;SDS011;9761;50.926;5.330;2022-09-30T10:16:24;9.60;;;6.80;;
19253;SDS011;9761;50.926;5.330;2022-09-30T10:18:53;10.93;;;7.80;;
19253;SDS011;9761;50.926;5.330;2022-09-30T10:21:23;11.30;;;7.33;;
19253;SDS011;9761;50.926;5.330;2022-09-30T10:23:53;13.00;;;7.93;;
19253;SDS011;9761;50.926;5.330;2022-09-30T10:26:22;11.00;;;7.37;;
19253;SDS011;9761;50.926;5.330;2022-09-30T10:28:55;8.90;;;6.63;;
19253;SDS011;9761;50.926;5.330;2022-09-30T10:31:27;9.53;;;6.33;;
19253;SDS011;9761;50.926;5.330;2022-09-30T10:33:58;7.83;;;6.87;;
19253;SDS011;9761;50.926;5.330;2022-09-30T10:36:36;6.87;;;4.20;;
19253;SDS011;9761;50.926;5.330;2022-09-30T10:39:14;4.10;;;3.00;;
19253;SDS011;9761;50.926;5.330;2022-09-30T10:41:48;2.80;;;2.60;;
19253;SDS011;9761;50.926;5.330;2022-09-30T10:44:20;3.67;;;2.10;;
19253;SDS011;9761;50.926;5.330;2022-09-30T10:46:57;2.53;;;1.80;;
19253;SDS011;9761;50.926;5.330;2022-09-30T10:49:29;3.10;;;2.60;;
19253;SDS011;9761;50.926;5.330;2022-09-30T10:52:05;5.13;;;2.50;;
19253;SDS011;9761;50.926;5.330;2022-09-30T10:54:47;3.53;;;2.80;;
19253;SDS011;9761;50.926;5.330;2022-09-30T10:57:18;3.33;;;2.63;;
19253;SDS011;9761;50.926;5.330;2022-09-30T10:59:49;2.67;;;2.00;;
19253;SDS011;9761;50.926;5.330;2022-09-30T11:02:30;3.23;;;2.47;;
19253;SDS011;9761;50.926;5.330;2022-09-30T11:05:09;4.00;;;2.53;;
19253;SDS011;9761;50.926;5.330;2022-09-30T11:07:44;3.13;;;1.90;;
19253;SDS011;9761;50.926;5.330;2022-09-30T11:10:20;3.97;;;2.30;;
19253;SDS011;9761;50.926;5.330;2022-09-30T11:13:03;7.00;;;2.57;;
19253;SDS011;9761;50.926;5.330;2022-09-30T11:15:41;5.03;;;2.43;;
19253;SDS011;9761;50.926;5.330;2022-09-30T11:18:22;2.57;;;1.80;;
19253;SDS011;9761;50.926;5.330;2022-09-30T11:20:58;2.40;;;1.60;;
19253;SDS011;9761;50.926;5.330;2022-09-30T11:23:31;3.03;;;1.50;;
19253;SDS011;9761;50.926;5.330;2022-09-30T11:26:05;3.00;;;1.27;;
19253;SDS011;9761;50.926;5.330;2022-09-30T11:28:47;3.73;;;1.60;;
19253;SDS011;9761;50.926;5.330;2022-09-30T11:31:30;1.77;;;1.50;;
19253;SDS011;9761;50.926;5.330;2022-09-30T11:37:03;1.43;;;1.30;;
19253;SDS011;9761;50.926;5.330;2022-09-30T11:39:56;3.87;;;2.00;;
19253;SDS011;9761;50.926;5.330;2022-09-30T11:42:43;5.63;;;2.37;;
19253;SDS011;9761;50.926;5.330;2022-09-30T11:45:25;2.70;;;1.80;;
19253;SDS011;9761;50.926;5.330;2022-09-30T11:48:11;4.33;;;2.13;;
19253;SDS011;9761;50.926;5.330;2022-09-30T11:50:53;3.70;;;2.00;;
19253;SDS011;9761;50.926;5.330;2022-09-30T11:53:33;2.57;;;2.10;;
19253;SDS011;9761;50.926;5.330;2022-09-30T11:56:16;3.40;;;1.80;;
19253;SDS011;9761;50.926;5.330;2022-09-30T11:58:52;3.37;;;1.70;;
19253;SDS011;9761;50.926;5.330;2022-09-30T12:01:29;1.40;;;1.30;;
19253;SDS011;9761;50.926;5.330;2022-09-30T12:04:03;3.17;;;2.07;;
19253;SDS011;9761;50.926;5.330;2022-09-30T12:06:41;2.77;;;1.90;;
19253;SDS011;9761;50.926;5.330;2022-09-30T12:09:16;3.30;;;2.30;;
19253;SDS011;9761;50.926;5.330;2022-09-30T12:11:49;3.70;;;2.07;;
19253;SDS011;9761;50.926;5.330;2022-09-30T12:14:22;2.57;;;1.87;;
19253;SDS011;9761;50.926;5.330;2022-09-30T12:16:57;2.63;;;1.70;;
19253;SDS011;9761;50.926;5.330;2022-09-30T12:19:31;2.03;;;1.40;;
19253;SDS011;9761;50.926;5.330;2022-09-30T12:22:08;3.23;;;2.03;;
19253;SDS011;9761;50.926;5.330;2022-09-30T12:24:38;2.00;;;1.50;;
19253;SDS011;9761;50.926;5.330;2022-09-30T12:27:11;2.57;;;1.80;;
19253;SDS011;9761;50.926;5.330;2022-09-30T12:29:44;3.17;;;1.53;;
19253;SDS011;9761;50.926;5.330;2022-09-30T12:32:39;4.67;;;2.00;;
19253;SDS011;9761;50.926;5.330;2022-09-30T12:35:35;3.90;;;1.90;;
19253;SDS011;9761;50.926;5.330;2022-09-30T12:38:21;2.10;;;1.77;;
19253;SDS011;9761;50.926;5.330;2022-09-30T12:41:19;3.07;;;1.83;;
19253;SDS011;9761;50.926;5.330;2022-09-30T12:47:04;2.30;;;1.80;;
19253;SDS011;9761;50.926;5.330;2022-09-30T12:49:40;2.47;;;1.80;;
19253;SDS011;9761;50.926;5.330;2022-09-30T12:52:10;2.00;;;1.63;;
19253;SDS011;9761;50.926;5.330;2022-09-30T12:54:42;3.63;;;1.70;;
19253;SDS011;9761;50.926;5.330;2022-09-30T12:57:16;2.53;;;1.90;;
19253;SDS011;9761;50.926;5.330;2022-09-30T12:59:47;2.57;;;1.90;;
19253;SDS011;9761;50.926;5.330;2022-09-30T13:02:28;3.03;;;1.80;;
19253;SDS011;9761;50.926;5.330;2022-09-30T13:08:08;3.57;;;2.10;;
19253;SDS011;9761;50.926;5.330;2022-09-30T13:10:55;3.57;;;2.30;;
19253;SDS011;9761;50.926;5.330;2022-09-30T13:13:25;4.23;;;2.07;;
19253;SDS011;9761;50.926;5.330;2022-09-30T13:15:56;4.07;;;2.20;;
19253;SDS011;9761;50.926;5.330;2022-09-30T13:21:26;3.43;;;2.30;;
19253;SDS011;9761;50.926;5.330;2022-09-30T13:23:54;2.47;;;1.73;;
19253;SDS011;9761;50.926;5.330;2022-09-30T13:26:38;2.20;;;1.70;;
19253;SDS011;9761;50.926;5.330;2022-09-30T13:29:26;2.03;;;1.70;;
19253;SDS011;9761;50.926;5.330;2022-09-30T13:32:06;2.37;;;1.60;;
19253;SDS011;9761;50.926;5.330;2022-09-30T13:38:09;2.70;;;1.90;;
19253;SDS011;9761;50.926;5.330;2022-09-30T13:40:43;3.00;;;1.70;;
19253;SDS011;9761;50.926;5.330;2022-09-30T13:43:21;1.97;;;1.40;;
19253;SDS011;9761;50.926;5.330;2022-09-30T13:46:03;2.80;;;1.27;;
19253;SDS011;9761;50.926;5.330;2022-09-30T13:48:37;5.37;;;1.80;;
19253;SDS011;9761;50.926;5.330;2022-09-30T13:51:17;2.80;;;1.40;;
19253;SDS011;9761;50.926;5.330;2022-09-30T13:53:53;2.50;;;1.20;;
19253;SDS011;9761;50.926;5.330;2022-09-30T13:56:25;2.23;;;1.10;;
19253;SDS011;9761;50.926;5.330;2022-09-30T14:05:17;2.30;;;1.40;;
19253;SDS011;9761;50.926;5.330;2022-09-30T14:11:09;3.50;;;1.10;;
19253;SDS011;9761;50.926;5.330;2022-09-30T14:13:53;3.30;;;1.37;;
19253;SDS011;9761;50.926;5.330;2022-09-30T14:19:47;4.17;;;1.20;;
19253;SDS011;9761;50.926;5.330;2022-09-30T14:22:26;2.50;;;1.20;;
19253;SDS011;9761;50.926;5.330;2022-09-30T14:24:55;3.80;;;1.00;;
19253;SDS011;9761;50.926;5.330;2022-09-30T14:27:27;1.10;;;1.00;;
19253;SDS011;9761;50.926;5.330;2022-09-30T14:30:10;1.27;;;0.90;;
19253;SDS011;9761;50.926;5.330;2022-09-30T14:32:46;4.30;;;0.97;;
19253;SDS011;9761;50.926;5.330;2022-09-30T14:35:16;1.30;;;1.00;;
19253;SDS011;9761;50.926;5.330;2022-09-30T14:37:49;2.00;;;1.07;;
19253;SDS011;9761;50.926;5.330;2022-09-30T14:40:19;1.30;;;1.10;;
19253;SDS011;9761;50.926;5.330;2022-09-30T14:42:50;3.23;;;1.30;;
19253;SDS011;9761;50.926;5.330;2022-09-30T14:45:20;2.37;;;1.10;;
19253;SDS011;9761;50.926;5.330;2022-09-30T14:47:57;1.40;;;1.10;;
19253;SDS011;9761;50.926;5.330;2022-09-30T14:50:34;2.93;;;1.10;;
19253;SDS011;9761;50.926;5.330;2022-09-30T14:53:22;1.67;;;0.97;;
19253;SDS011;9761;50.926;5.330;2022-09-30T14:55:53;2.77;;;1.00;;
19253;SDS011;9761;50.926;5.330;2022-09-30T14:58:26;2.33;;;1.00;;
19253;SDS011;9761;50.926;5.330;2022-09-30T15:01:00;2.13;;;1.03;;
19253;SDS011;9761;50.926;5.330;2022-09-30T15:03:34;1.30;;;1.20;;
19253;SDS011;9761;50.926;5.330;2022-09-30T15:06:05;3.07;;;1.30;;
19253;SDS011;9761;50.926;5.330;2022-09-30T15:08:45;1.57;;;0.90;;
19253;SDS011;9761;50.926;5.330;2022-09-30T15:11:20;1.57;;;1.13;;
19253;SDS011;9761;50.926;5.330;2022-09-30T15:13:52;1.03;;;0.90;;
19253;SDS011;9761;50.926;5.330;2022-09-30T15:16:31;2.57;;;0.90;;
19253;SDS011;9761;50.926;5.330;2022-09-30T15:19:11;3.13;;;1.17;;
19253;SDS011;9761;50.926;5.330;2022-09-30T15:21:45;2.27;;;0.87;;
19253;SDS011;9761;50.926;5.330;2022-09-30T15:24:19;3.70;;;1.20;;
19253;SDS011;9761;50.926;5.330;2022-09-30T15:26:50;1.37;;;1.10;;
19253;SDS011;9761;50.926;5.330;2022-09-30T15:29:22;1.73;;;1.10;;
19253;SDS011;9761;50.926;5.330;2022-09-30T15:31:52;2.90;;;1.10;;
19253;SDS011;9761;50.926;5.330;2022-09-30T15:34:27;1.77;;;1.00;;
19253;SDS011;9761;50.926;5.330;2022-09-30T15:36:57;1.97;;;1.10;;
19253;SDS011;9761;50.926;5.330;2022-09-30T15:39:33;1.63;;;1.33;;
19253;SDS011;9761;50.926;5.330;2022-09-30T15:42:27;3.33;;;1.70;;
19253;SDS011;9761;50.926;5.330;2022-09-30T15:44:56;1.00;;;0.90;;
19253;SDS011;9761;50.926;5.330;2022-09-30T15:47:27;2.07;;;1.17;;
19253;SDS011;9761;50.926;5.330;2022-09-30T15:49:57;2.93;;;1.53;;
19253;SDS011;9761;50.926;5.330;2022-09-30T15:52:30;2.10;;;1.43;;
19253;SDS011;9761;50.926;5.330;2022-09-30T15:58:03;1.43;;;1.00;;
19253;SDS011;9761;50.926;5.330;2022-09-30T16:01:07;3.30;;;2.37;;
19253;SDS011;9761;50.926;5.330;2022-09-30T16:03:45;1.63;;;1.00;;